Time;durP1;ratioP1;P1;durP2;ratioP2;P2;SDS_P1;SDS_P2;PMS_P1;PMS_P2;Temp;Humidity;BMP_temperature;BMP_pressure;BME280_temperature;BME280_humidity;BME280_pressure;Samples;Min_cycle;Max_cycle;Signal;HPM_P1;HPM_P2
2022/01/04 00:00:55;;;;;;;1.6;1.15;;;;;;;9.78;72.64453;94440.91;;;;
2022/01/04 00:01:57;;;;;;;1.6;1.15;;;;;;;9.78;72.64453;94440.91;;;;
2022/01/04 00:02:58;;;;;;;1.6;1.15;;;;;;;9.78;72.64453;94440.91;;;;
2022/01/04 00:03:59;;;;;;;1.6;1.15;;;;;;;9.78;72.64453;94440.91;;;;
2022/01/04 00:05:00;;;;;;;1.6;1.15;;;;;;;9.78;72.64453;94440.91;;;;
2022/01/04 00:06:00;;;;;;;1.6;1.15;;;;;;;9.78;72.64453;94440.91;;;;
2022/01/04 00:07:01;;;;;;;1.6;1.15;;;;;;;9.78;72.64453;94440.91;;;;
2022/01/04 00:08:02;;;;;;;1.4;1.1;;;;;;;9.81;72.71484;94429.08;;;;
2022/01/04 00:09:05;;;;;;;1.4;1.1;;;;;;;9.81;72.71484;94429.08;;;;
2022/01/04 00:10:07;;;;;;;1.4;1.1;;;;;;;9.81;72.71484;94429.08;;;;
2022/01/04 00:11:15;;;;;;;1.4;1.1;;;;;;;9.81;72.71484;94429.08;;;;
2022/01/04 00:17:17;;;;;;;1.4;1.1;;;;;;;9.81;72.71484;94429.08;;;;
2022/01/04 00:18:18;;;;;;;1.4;1.1;;;;;;;9.81;72.71484;94429.08;;;;
2022/01/04 00:19:19;;;;;;;1.4;1.1;;;;;;;9.81;72.71484;94429.08;;;;
2022/01/04 00:20:19;;;;;;;1.4;1.1;;;;;;;9.81;72.71484;94429.08;;;;
2022/01/04 00:21:20;;;;;;;1.4;1.1;;;;;;;9.81;72.71484;94429.08;;;;
2022/01/04 00:22:20;;;;;;;1.4;1.1;;;;;;;9.81;72.71484;94429.08;;;;
2022/01/04 00:23:21;;;;;;;1.4;1.1;;;;;;;9.81;72.71484;94429.08;;;;
2022/01/04 00:24:21;;;;;;;1.4;1.1;;;;;;;9.81;72.71484;94429.08;;;;
2022/01/04 00:25:22;;;;;;;1.4;1.1;;;;;;;9.81;72.71484;94429.08;;;;
2022/01/04 00:26:22;;;;;;;1.4;1.1;;;;;;;9.81;72.71484;94429.08;;;;
2022/01/04 00:27:23;;;;;;;1.4;1.1;;;;;;;9.81;72.71484;94429.08;;;;
2022/01/04 00:28:23;;;;;;;1.4;1.1;;;;;;;9.81;72.71484;94429.08;;;;
2022/01/04 00:29:24;;;;;;;2.45;1.15;;;;;;;9.99;72.57227;94402.31;;;;
2022/01/04 00:30:28;;;;;;;2.45;1.15;;;;;;;9.99;72.57227;94402.31;;;;
2022/01/04 00:31:29;;;;;;;2.45;1.15;;;;;;;9.99;72.57227;94402.31;;;;
2022/01/04 00:32:29;;;;;;;2.45;1.15;;;;;;;9.99;72.57227;94402.31;;;;
2022/01/04 00:33:30;;;;;;;2.45;1.15;;;;;;;9.99;72.57227;94402.31;;;;
2022/01/04 00:34:30;;;;;;;2.45;1.15;;;;;;;9.99;72.57227;94402.31;;;;
2022/01/04 00:35:31;;;;;;;2.45;1.15;;;;;;;9.99;72.57227;94402.31;;;;
2022/01/04 00:36:33;;;;;;;2.45;1.15;;;;;;;9.99;72.57227;94402.31;;;;
2022/01/04 00:37:33;;;;;;;2.45;1.15;;;;;;;9.99;72.57227;94402.31;;;;
2022/01/04 00:38:34;;;;;;;2.45;1.15;;;;;;;9.99;72.57227;94402.31;;;;
2022/01/04 00:39:34;;;;;;;1.85;1.2;;;;;;;10.01;72.55371;94379.55;;;;
2022/01/04 00:40:35;;;;;;;1.85;1.2;;;;;;;10.01;72.55371;94379.55;;;;
2022/01/04 00:41:38;;;;;;;1.85;1.2;;;;;;;10.01;72.55371;94379.55;;;;
2022/01/04 00:42:39;;;;;;;1.85;1.2;;;;;;;10.01;72.55371;94379.55;;;;
2022/01/04 00:43:40;;;;;;;1.85;1.2;;;;;;;10.01;72.55371;94379.55;;;;
2022/01/04 00:44:40;;;;;;;1.85;1.2;;;;;;;10.01;72.55371;94379.55;;;;
2022/01/04 00:45:41;;;;;;;1.85;1.2;;;;;;;10.01;72.55371;94379.55;;;;
2022/01/04 00:46:41;;;;;;;1.85;1.2;;;;;;;10.01;72.55371;94379.55;;;;
2022/01/04 00:49:09;;;;;;;1.85;1.2;;;;;;;10.01;72.55371;94379.55;;;;
2022/01/04 00:50:10;;;;;;;1.35;1.2;;;;;;;10.01;72.53418;94348.42;;;;
2022/01/04 00:51:12;;;;;;;1.35;1.2;;;;;;;10.01;72.53418;94348.42;;;;
2022/01/04 00:52:16;;;;;;;1.35;1.2;;;;;;;10.01;72.53418;94348.42;;;;
2022/01/04 00:53:17;;;;;;;1.35;1.2;;;;;;;10.01;72.53418;94348.42;;;;
2022/01/04 00:54:17;;;;;;;1.35;1.2;;;;;;;10.01;72.53418;94348.42;;;;
2022/01/04 00:55:19;;;;;;;1.35;1.2;;;;;;;10.01;72.53418;94348.42;;;;
2022/01/04 00:56:20;;;;;;;1.35;1.2;;;;;;;10.01;72.53418;94348.42;;;;
2022/01/04 00:57:20;;;;;;;1.35;1.2;;;;;;;10.01;72.53418;94348.42;;;;
2022/01/04 00:58:21;;;;;;;1.35;1.2;;;;;;;10.01;72.53418;94348.42;;;;
2022/01/04 00:59:22;;;;;;;1.35;1.2;;;;;;;10.01;72.53418;94348.42;;;;
2022/01/04 01:00:22;;;;;;;1.35;1.2;;;;;;;10.01;72.53418;94348.42;;;;
2022/01/04 01:01:23;;;;;;;1.35;1.2;;;;;;;10.01;72.53418;94348.42;;;;
2022/01/04 01:02:24;;;;;;;1.35;1.2;;;;;;;10.01;72.53418;94348.42;;;;
2022/01/04 01:03:25;;;;;;;1.35;1.2;;;;;;;10.01;72.53418;94348.42;;;;
2022/01/04 01:04:25;;;;;;;1.35;1.2;;;;;;;10.01;72.53418;94348.42;;;;
2022/01/04 01:05:26;;;;;;;1.35;1.2;;;;;;;10.01;72.53418;94348.42;;;;
2022/01/04 01:06:27;;;;;;;1.35;1.2;;;;;;;10.01;72.53418;94348.42;;;;
2022/01/04 01:07:27;;;;;;;1.35;1.2;;;;;;;10.01;72.53418;94348.42;;;;
2022/01/04 01:08:28;;;;;;;1.35;1.2;;;;;;;10.01;72.53418;94348.42;;;;
2022/01/04 01:09:32;;;;;;;1.35;1.2;;;;;;;10.01;72.53418;94348.42;;;;
2022/01/04 01:10:43;;;;;;;1.35;1.2;;;;;;;10.01;72.53418;94348.42;;;;
2022/01/04 01:11:43;;;;;;;2.85;1.3;;;;;;;10.11;72.16309;94319.95;;;;
2022/01/04 01:12:44;;;;;;;2.85;1.3;;;;;;;10.11;72.16309;94319.95;;;;
2022/01/04 01:13:45;;;;;;;2.85;1.3;;;;;;;10.11;72.16309;94319.95;;;;
2022/01/04 01:14:46;;;;;;;2.85;1.3;;;;;;;10.11;72.16309;94319.95;;;;
2022/01/04 01:15:47;;;;;;;2.85;1.3;;;;;;;10.11;72.16309;94319.95;;;;
2022/01/04 01:16:47;;;;;;;2.85;1.3;;;;;;;10.11;72.16309;94319.95;;;;
2022/01/04 01:17:48;;;;;;;2.85;1.3;;;;;;;10.11;72.16309;94319.95;;;;
2022/01/04 01:18:49;;;;;;;2.85;1.3;;;;;;;10.11;72.16309;94319.95;;;;
2022/01/04 01:19:49;;;;;;;2.85;1.3;;;;;;;10.11;72.16309;94319.95;;;;
2022/01/04 01:20:50;;;;;;;2.85;1.3;;;;;;;10.11;72.16309;94319.95;;;;
2022/01/04 01:21:51;;;;;;;1.7;1.2;;;;;;;10.16;71.93848;94322.16;;;;
2022/01/04 01:22:52;;;;;;;1.7;1.2;;;;;;;10.16;71.93848;94322.16;;;;
2022/01/04 01:23:52;;;;;;;1.7;1.2;;;;;;;10.16;71.93848;94322.16;;;;
2022/01/04 01:24:53;;;;;;;1.7;1.2;;;;;;;10.16;71.93848;94322.16;;;;
2022/01/04 01:25:53;;;;;;;1.7;1.2;;;;;;;10.16;71.93848;94322.16;;;;
2022/01/04 01:26:54;;;;;;;1.7;1.2;;;;;;;10.16;71.93848;94322.16;;;;
2022/01/04 01:27:54;;;;;;;1.7;1.2;;;;;;;10.16;71.93848;94322.16;;;;
2022/01/04 01:28:56;;;;;;;1.7;1.2;;;;;;;10.16;71.93848;94322.16;;;;
2022/01/04 01:29:56;;;;;;;1.7;1.2;;;;;;;10.16;71.93848;94322.16;;;;
2022/01/04 01:30:57;;;;;;;1.7;1.2;;;;;;;10.16;71.93848;94322.16;;;;
2022/01/04 01:31:57;;;;;;;1.7;1.2;;;;;;;10.16;71.93848;94322.16;;;;
2022/01/04 01:32:58;;;;;;;1.75;1.1;;;;;;;10.31;71.28809;94315.11;;;;
2022/01/04 01:33:58;;;;;;;1.75;1.1;;;;;;;10.31;71.28809;94315.11;;;;
2022/01/04 01:34:59;;;;;;;1.75;1.1;;;;;;;10.31;71.28809;94315.11;;;;
2022/01/04 01:35:59;;;;;;;1.75;1.1;;;;;;;10.31;71.28809;94315.11;;;;
2022/01/04 01:37:00;;;;;;;1.75;1.1;;;;;;;10.31;71.28809;94315.11;;;;
2022/01/04 01:38:01;;;;;;;1.75;1.1;;;;;;;10.31;71.28809;94315.11;;;;
2022/01/04 01:39:02;;;;;;;1.75;1.1;;;;;;;10.31;71.28809;94315.11;;;;
2022/01/04 01:40:03;;;;;;;1.75;1.1;;;;;;;10.31;71.28809;94315.11;;;;
2022/01/04 01:41:05;;;;;;;1.75;1.1;;;;;;;10.31;71.28809;94315.11;;;;
2022/01/04 01:42:05;;;;;;;1.75;1.1;;;;;;;10.31;71.28809;94315.11;;;;
2022/01/04 01:43:06;;;;;;;1.75;1.1;;;;;;;10.31;71.28809;94315.11;;;;
2022/01/04 01:44:08;;;;;;;1.4;1.3;;;;;;;10.43;70.89063;94295.94;;;;
2022/01/04 01:45:09;;;;;;;1.4;1.3;;;;;;;10.43;70.89063;94295.94;;;;
2022/01/04 01:46:11;;;;;;;1.4;1.3;;;;;;;10.43;70.89063;94295.94;;;;
2022/01/04 01:47:11;;;;;;;1.4;1.3;;;;;;;10.43;70.89063;94295.94;;;;
2022/01/04 01:48:12;;;;;;;1.4;1.3;;;;;;;10.43;70.89063;94295.94;;;;
2022/01/04 01:49:13;;;;;;;1.4;1.3;;;;;;;10.43;70.89063;94295.94;;;;
2022/01/04 01:50:13;;;;;;;1.4;1.3;;;;;;;10.43;70.89063;94295.94;;;;
2022/01/04 01:51:17;;;;;;;1.4;1.3;;;;;;;10.43;70.89063;94295.94;;;;
2022/01/04 01:52:17;;;;;;;1.4;1.3;;;;;;;10.43;70.89063;94295.94;;;;
2022/01/04 01:53:18;;;;;;;1.4;1.3;;;;;;;10.43;70.89063;94295.94;;;;
2022/01/04 01:54:19;;;;;;;2.15;1.3;;;;;;;10.48;70.69629;94260.88;;;;
2022/01/04 01:55:20;;;;;;;2.15;1.3;;;;;;;10.48;70.69629;94260.88;;;;
2022/01/04 01:56:22;;;;;;;2.15;1.3;;;;;;;10.48;70.69629;94260.88;;;;
2022/01/04 01:57:24;;;;;;;2.15;1.3;;;;;;;10.48;70.69629;94260.88;;;;
2022/01/04 01:58:24;;;;;;;2.15;1.3;;;;;;;10.48;70.69629;94260.88;;;;
2022/01/04 01:59:25;;;;;;;2.15;1.3;;;;;;;10.48;70.69629;94260.88;;;;
2022/01/04 02:00:25;;;;;;;2.15;1.3;;;;;;;10.48;70.69629;94260.88;;;;
2022/01/04 02:01:28;;;;;;;2.15;1.3;;;;;;;10.48;70.69629;94260.88;;;;
2022/01/04 02:02:28;;;;;;;2.15;1.3;;;;;;;10.48;70.69629;94260.88;;;;
2022/01/04 02:03:29;;;;;;;2.15;1.3;;;;;;;10.48;70.69629;94260.88;;;;
2022/01/04 02:04:29;;;;;;;1.5;1;;;;;;;10.52;70.64844;94243.48;;;;
2022/01/04 02:05:30;;;;;;;1.5;1;;;;;;;10.52;70.64844;94243.48;;;;
2022/01/04 02:06:31;;;;;;;1.5;1;;;;;;;10.52;70.64844;94243.48;;;;
2022/01/04 02:07:32;;;;;;;1.5;1;;;;;;;10.52;70.64844;94243.48;;;;
2022/01/04 02:08:34;;;;;;;1.5;1;;;;;;;10.52;70.64844;94243.48;;;;
2022/01/04 02:09:39;;;;;;;1.5;1;;;;;;;10.52;70.64844;94243.48;;;;
2022/01/04 02:10:39;;;;;;;1.5;1;;;;;;;10.52;70.64844;94243.48;;;;
2022/01/04 02:11:41;;;;;;;1.5;1;;;;;;;10.52;70.64844;94243.48;;;;
2022/01/04 02:12:44;;;;;;;1.5;1;;;;;;;10.52;70.64844;94243.48;;;;
2022/01/04 02:13:47;;;;;;;1.5;1;;;;;;;10.52;70.64844;94243.48;;;;
2022/01/04 02:14:47;;;;;;;1.5;1;;;;;;;10.52;70.64844;94243.48;;;;
2022/01/04 02:15:49;;;;;;;1.4;1.15;;;;;;;10.61;70.44824;94216.83;;;;
2022/01/04 02:16:49;;;;;;;1.4;1.15;;;;;;;10.61;70.44824;94216.83;;;;
2022/01/04 02:17:50;;;;;;;1.4;1.15;;;;;;;10.61;70.44824;94216.83;;;;
2022/01/04 02:18:51;;;;;;;1.4;1.15;;;;;;;10.61;70.44824;94216.83;;;;
2022/01/04 02:19:52;;;;;;;1.4;1.15;;;;;;;10.61;70.44824;94216.83;;;;
2022/01/04 02:20:54;;;;;;;1.4;1.15;;;;;;;10.61;70.44824;94216.83;;;;
2022/01/04 02:21:55;;;;;;;1.4;1.15;;;;;;;10.61;70.44824;94216.83;;;;
2022/01/04 02:22:56;;;;;;;1.4;1.15;;;;;;;10.61;70.44824;94216.83;;;;
2022/01/04 02:23:56;;;;;;;1.4;1.15;;;;;;;10.61;70.44824;94216.83;;;;
2022/01/04 02:24:57;;;;;;;1.4;1.15;;;;;;;10.61;70.44824;94216.83;;;;
2022/01/04 02:25:57;;;;;;;1.3;1.05;;;;;;;10.68;70.28906;94197.58;;;;
2022/01/04 02:26:58;;;;;;;1.3;1.05;;;;;;;10.68;70.28906;94197.58;;;;
2022/01/04 02:27:59;;;;;;;1.3;1.05;;;;;;;10.68;70.28906;94197.58;;;;
2022/01/04 02:28:59;;;;;;;1.3;1.05;;;;;;;10.68;70.28906;94197.58;;;;
2022/01/04 02:30:01;;;;;;;1.3;1.05;;;;;;;10.68;70.28906;94197.58;;;;
2022/01/04 02:31:04;;;;;;;1.3;1.05;;;;;;;10.68;70.28906;94197.58;;;;
2022/01/04 02:32:05;;;;;;;1.3;1.05;;;;;;;10.68;70.28906;94197.58;;;;
2022/01/04 02:33:06;;;;;;;1.3;1.05;;;;;;;10.68;70.28906;94197.58;;;;
2022/01/04 02:34:06;;;;;;;1.3;1.05;;;;;;;10.68;70.28906;94197.58;;;;
2022/01/04 02:35:07;;;;;;;1.3;1.05;;;;;;;10.68;70.28906;94197.58;;;;
2022/01/04 02:36:08;;;;;;;1.3;1.05;;;;;;;10.68;70.28906;94197.58;;;;
2022/01/04 02:37:09;;;;;;;1.3;1.05;;;;;;;10.68;70.28906;94197.58;;;;
2022/01/04 02:38:10;;;;;;;1.3;1.05;;;;;;;10.68;70.28906;94197.58;;;;
2022/01/04 02:39:10;;;;;;;1.3;1.05;;;;;;;10.68;70.28906;94197.58;;;;
2022/01/04 02:40:11;;;;;;;1.3;1.05;;;;;;;10.68;70.28906;94197.58;;;;
2022/01/04 02:41:12;;;;;;;1.3;1.05;;;;;;;10.68;70.28906;94197.58;;;;
2022/01/04 02:42:12;;;;;;;1.3;1.05;;;;;;;10.68;70.28906;94197.58;;;;
2022/01/04 02:43:13;;;;;;;1.3;1.05;;;;;;;10.68;70.28906;94197.58;;;;
2022/01/04 02:44:13;;;;;;;1.3;1.05;;;;;;;10.68;70.28906;94197.58;;;;
2022/01/04 02:45:14;;;;;;;1.3;1.05;;;;;;;10.68;70.28906;94197.58;;;;
2022/01/04 02:46:14;;;;;;;1.3;1.05;;;;;;;10.68;70.28906;94197.58;;;;
2022/01/04 02:47:15;;;;;;;1.3;1.05;;;;;;;10.68;70.28906;94197.58;;;;
2022/01/04 02:48:16;;;;;;;1.3;1.05;;;;;;;10.68;70.28906;94197.58;;;;
2022/01/04 02:49:16;;;;;;;1.3;1.05;;;;;;;10.68;70.28906;94197.58;;;;
2022/01/04 02:50:17;;;;;;;1.3;1.05;;;;;;;10.68;70.28906;94197.58;;;;
2022/01/04 02:51:18;;;;;;;1.3;1.05;;;;;;;10.68;70.28906;94197.58;;;;
2022/01/04 02:52:19;;;;;;;1.3;1.05;;;;;;;10.68;70.28906;94197.58;;;;
2022/01/04 02:53:19;;;;;;;1.3;1.05;;;;;;;10.68;70.28906;94197.58;;;;
2022/01/04 02:54:20;;;;;;;1.3;1.05;;;;;;;10.68;70.28906;94197.58;;;;
2022/01/04 02:55:21;;;;;;;1.3;1.05;;;;;;;10.68;70.28906;94197.58;;;;
2022/01/04 02:56:21;;;;;;;1.3;1.05;;;;;;;10.68;70.28906;94197.58;;;;
2022/01/04 02:57:22;;;;;;;1.3;1.05;;;;;;;10.68;70.28906;94197.58;;;;
2022/01/04 02:58:22;;;;;;;2.1;1.2;;;;;;;10.49;70.70703;94107.32;;;;
2022/01/04 02:59:23;;;;;;;2.1;1.2;;;;;;;10.49;70.70703;94107.32;;;;
2022/01/04 03:00:25;;;;;;;2.1;1.2;;;;;;;10.49;70.70703;94107.32;;;;
2022/01/04 03:01:26;;;;;;;2.1;1.2;;;;;;;10.49;70.70703;94107.32;;;;
2022/01/04 03:02:26;;;;;;;2.1;1.2;;;;;;;10.49;70.70703;94107.32;;;;
2022/01/04 03:03:27;;;;;;;2.1;1.2;;;;;;;10.49;70.70703;94107.32;;;;
2022/01/04 03:04:28;;;;;;;2.1;1.2;;;;;;;10.49;70.70703;94107.32;;;;
2022/01/04 03:05:29;;;;;;;2.1;1.2;;;;;;;10.49;70.70703;94107.32;;;;
2022/01/04 03:06:29;;;;;;;2.1;1.2;;;;;;;10.49;70.70703;94107.32;;;;
2022/01/04 03:07:30;;;;;;;2.1;1.2;;;;;;;10.49;70.70703;94107.32;;;;
2022/01/04 03:08:30;;;;;;;1.35;0.9;;;;;;;10.46;70.8418;94089.9;;;;
2022/01/04 03:09:31;;;;;;;1.35;0.9;;;;;;;10.46;70.8418;94089.9;;;;
2022/01/04 03:10:32;;;;;;;1.35;0.9;;;;;;;10.46;70.8418;94089.9;;;;
2022/01/04 03:11:32;;;;;;;1.35;0.9;;;;;;;10.46;70.8418;94089.9;;;;
2022/01/04 03:12:34;;;;;;;1.35;0.9;;;;;;;10.46;70.8418;94089.9;;;;
2022/01/04 03:13:36;;;;;;;1.35;0.9;;;;;;;10.46;70.8418;94089.9;;;;
2022/01/04 03:14:37;;;;;;;1.35;0.9;;;;;;;10.46;70.8418;94089.9;;;;
2022/01/04 03:15:37;;;;;;;1.35;0.9;;;;;;;10.46;70.8418;94089.9;;;;
2022/01/04 03:16:38;;;;;;;1.35;0.9;;;;;;;10.46;70.8418;94089.9;;;;
2022/01/04 03:17:39;;;;;;;1.35;0.9;;;;;;;10.46;70.8418;94089.9;;;;
2022/01/04 03:18:59;;;;;;;1.35;0.9;;;;;;;10.46;70.8418;94089.9;;;;
2022/01/04 03:20:00;;;;;;;1.35;1.1;;;;;;;10.48;70.77148;94080.08;;;;
2022/01/04 03:21:01;;;;;;;1.35;1.1;;;;;;;10.48;70.77148;94080.08;;;;
2022/01/04 03:22:01;;;;;;;1.35;1.1;;;;;;;10.48;70.77148;94080.08;;;;
2022/01/04 03:23:02;;;;;;;1.35;1.1;;;;;;;10.48;70.77148;94080.08;;;;
2022/01/04 03:24:03;;;;;;;1.35;1.1;;;;;;;10.48;70.77148;94080.08;;;;
2022/01/04 03:25:06;;;;;;;1.35;1.1;;;;;;;10.48;70.77148;94080.08;;;;
2022/01/04 03:26:08;;;;;;;1.35;1.1;;;;;;;10.48;70.77148;94080.08;;;;
2022/01/04 03:27:09;;;;;;;1.35;1.1;;;;;;;10.48;70.77148;94080.08;;;;
2022/01/04 03:28:09;;;;;;;1.35;1.1;;;;;;;10.48;70.77148;94080.08;;;;
2022/01/04 03:29:10;;;;;;;1.35;1.1;;;;;;;10.48;70.77148;94080.08;;;;
2022/01/04 03:30:14;;;;;;;1.6;1.2;;;;;;;10.47;70.67188;94046.06;;;;
2022/01/04 03:31:15;;;;;;;1.6;1.2;;;;;;;10.47;70.67188;94046.06;;;;
2022/01/04 03:32:16;;;;;;;1.6;1.2;;;;;;;10.47;70.67188;94046.06;;;;
2022/01/04 03:33:16;;;;;;;1.6;1.2;;;;;;;10.47;70.67188;94046.06;;;;
2022/01/04 03:34:17;;;;;;;1.6;1.2;;;;;;;10.47;70.67188;94046.06;;;;
2022/01/04 03:35:17;;;;;;;1.6;1.2;;;;;;;10.47;70.67188;94046.06;;;;
2022/01/04 03:36:20;;;;;;;1.6;1.2;;;;;;;10.47;70.67188;94046.06;;;;
2022/01/04 03:37:22;;;;;;;1.6;1.2;;;;;;;10.47;70.67188;94046.06;;;;
2022/01/04 03:38:22;;;;;;;1.6;1.2;;;;;;;10.47;70.67188;94046.06;;;;
2022/01/04 03:39:23;;;;;;;1.6;1.2;;;;;;;10.47;70.67188;94046.06;;;;
2022/01/04 03:40:23;;;;;;;1.6;1.2;;;;;;;10.47;70.67188;94046.06;;;;
2022/01/04 03:41:24;;;;;;;2.2;1.2;;;;;;;10.5;70.69922;94030.7;;;;
2022/01/04 03:42:26;;;;;;;2.2;1.2;;;;;;;10.5;70.69922;94030.7;;;;
2022/01/04 03:43:27;;;;;;;2.2;1.2;;;;;;;10.5;70.69922;94030.7;;;;
2022/01/04 03:44:30;;;;;;;2.2;1.2;;;;;;;10.5;70.69922;94030.7;;;;
2022/01/04 03:45:31;;;;;;;2.2;1.2;;;;;;;10.5;70.69922;94030.7;;;;
2022/01/04 03:46:31;;;;;;;2.2;1.2;;;;;;;10.5;70.69922;94030.7;;;;
2022/01/04 03:47:32;;;;;;;2.2;1.2;;;;;;;10.5;70.69922;94030.7;;;;
2022/01/04 03:48:33;;;;;;;2.2;1.2;;;;;;;10.5;70.69922;94030.7;;;;
2022/01/04 03:49:34;;;;;;;2.2;1.2;;;;;;;10.5;70.69922;94030.7;;;;
2022/01/04 03:50:35;;;;;;;2.2;1.2;;;;;;;10.5;70.69922;94030.7;;;;
2022/01/04 03:51:35;;;;;;;1.3;1.15;;;;;;;10.53;70.75684;93977.12;;;;
2022/01/04 03:52:36;;;;;;;1.3;1.15;;;;;;;10.53;70.75684;93977.12;;;;
2022/01/04 03:53:36;;;;;;;1.3;1.15;;;;;;;10.53;70.75684;93977.12;;;;
2022/01/04 03:54:37;;;;;;;1.3;1.15;;;;;;;10.53;70.75684;93977.12;;;;
2022/01/04 03:55:38;;;;;;;1.3;1.15;;;;;;;10.53;70.75684;93977.12;;;;
2022/01/04 03:56:38;;;;;;;1.3;1.15;;;;;;;10.53;70.75684;93977.12;;;;
2022/01/04 03:57:39;;;;;;;1.3;1.15;;;;;;;10.53;70.75684;93977.12;;;;
2022/01/04 03:58:40;;;;;;;1.3;1.15;;;;;;;10.53;70.75684;93977.12;;;;
2022/01/04 03:59:40;;;;;;;1.3;1.15;;;;;;;10.53;70.75684;93977.12;;;;
2022/01/04 04:00:41;;;;;;;1.3;1.15;;;;;;;10.53;70.75684;93977.12;;;;
2022/01/04 04:01:41;;;;;;;1.3;1.15;;;;;;;10.53;70.75684;93977.12;;;;
2022/01/04 04:02:42;;;;;;;1.45;1.2;;;;;;;10.64;70.58301;93963.92;;;;
2022/01/04 04:03:42;;;;;;;1.45;1.2;;;;;;;10.64;70.58301;93963.92;;;;
2022/01/04 04:04:43;;;;;;;1.45;1.2;;;;;;;10.64;70.58301;93963.92;;;;
2022/01/04 04:05:43;;;;;;;1.45;1.2;;;;;;;10.64;70.58301;93963.92;;;;
2022/01/04 04:06:44;;;;;;;1.45;1.2;;;;;;;10.64;70.58301;93963.92;;;;
2022/01/04 04:07:45;;;;;;;1.45;1.2;;;;;;;10.64;70.58301;93963.92;;;;
2022/01/04 04:08:45;;;;;;;1.45;1.2;;;;;;;10.64;70.58301;93963.92;;;;
2022/01/04 04:09:46;;;;;;;1.45;1.2;;;;;;;10.64;70.58301;93963.92;;;;
2022/01/04 04:10:46;;;;;;;1.45;1.2;;;;;;;10.64;70.58301;93963.92;;;;
2022/01/04 04:11:47;;;;;;;1.45;1.2;;;;;;;10.64;70.58301;93963.92;;;;
2022/01/04 04:12:47;;;;;;;1.9;1.2;;;;;;;10.65;70.47559;93930.06;;;;
2022/01/04 04:13:48;;;;;;;1.9;1.2;;;;;;;10.65;70.47559;93930.06;;;;
2022/01/04 04:14:48;;;;;;;1.9;1.2;;;;;;;10.65;70.47559;93930.06;;;;
2022/01/04 04:15:49;;;;;;;1.9;1.2;;;;;;;10.65;70.47559;93930.06;;;;
2022/01/04 04:16:50;;;;;;;1.9;1.2;;;;;;;10.65;70.47559;93930.06;;;;
2022/01/04 04:17:50;;;;;;;1.9;1.2;;;;;;;10.65;70.47559;93930.06;;;;
2022/01/04 04:18:50;;;;;;;1.9;1.2;;;;;;;10.65;70.47559;93930.06;;;;
2022/01/04 04:19:51;;;;;;;1.9;1.2;;;;;;;10.65;70.47559;93930.06;;;;
2022/01/04 04:20:52;;;;;;;1.9;1.2;;;;;;;10.65;70.47559;93930.06;;;;
2022/01/04 04:21:52;;;;;;;1.9;1.2;;;;;;;10.65;70.47559;93930.06;;;;
2022/01/04 04:22:53;;;;;;;1.9;1.2;;;;;;;10.65;70.47559;93930.06;;;;
2022/01/04 04:23:54;;;;;;;2;1.4;;;;;;;10.41;70.90918;93937.03;;;;
2022/01/04 04:24:54;;;;;;;2;1.4;;;;;;;10.41;70.90918;93937.03;;;;
2022/01/04 04:25:55;;;;;;;2;1.4;;;;;;;10.41;70.90918;93937.03;;;;
2022/01/04 04:26:56;;;;;;;2;1.4;;;;;;;10.41;70.90918;93937.03;;;;
2022/01/04 04:27:56;;;;;;;2;1.4;;;;;;;10.41;70.90918;93937.03;;;;
2022/01/04 04:28:57;;;;;;;2;1.4;;;;;;;10.41;70.90918;93937.03;;;;
2022/01/04 04:29:57;;;;;;;2;1.4;;;;;;;10.41;70.90918;93937.03;;;;
2022/01/04 04:30:59;;;;;;;2;1.4;;;;;;;10.41;70.90918;93937.03;;;;
2022/01/04 04:31:59;;;;;;;2;1.4;;;;;;;10.41;70.90918;93937.03;;;;
2022/01/04 04:33:00;;;;;;;2;1.4;;;;;;;10.41;70.90918;93937.03;;;;
2022/01/04 04:34:00;;;;;;;2.2;1.3;;;;;;;10.02;71.60547;93928.94;;;;
2022/01/04 04:35:01;;;;;;;2.2;1.3;;;;;;;10.02;71.60547;93928.94;;;;
2022/01/04 04:36:02;;;;;;;2.2;1.3;;;;;;;10.02;71.60547;93928.94;;;;
2022/01/04 04:37:03;;;;;;;2.2;1.3;;;;;;;10.02;71.60547;93928.94;;;;
2022/01/04 04:38:06;;;;;;;2.2;1.3;;;;;;;10.02;71.60547;93928.94;;;;
2022/01/04 04:39:07;;;;;;;2.2;1.3;;;;;;;10.02;71.60547;93928.94;;;;
2022/01/04 04:40:07;;;;;;;2.2;1.3;;;;;;;10.02;71.60547;93928.94;;;;
2022/01/04 04:41:09;;;;;;;2.2;1.3;;;;;;;10.02;71.60547;93928.94;;;;
2022/01/04 04:42:09;;;;;;;2.2;1.3;;;;;;;10.02;71.60547;93928.94;;;;
2022/01/04 04:43:10;;;;;;;2.2;1.3;;;;;;;10.02;71.60547;93928.94;;;;
2022/01/04 04:44:11;;;;;;;2.2;1.3;;;;;;;10.02;71.60547;93928.94;;;;
2022/01/04 04:45:11;;;;;;;1.6;1.45;;;;;;;9.35;72.74316;93912.39;;;;
2022/01/04 04:46:12;;;;;;;1.6;1.45;;;;;;;9.35;72.74316;93912.39;;;;
2022/01/04 04:47:12;;;;;;;1.6;1.45;;;;;;;9.35;72.74316;93912.39;;;;
2022/01/04 04:48:13;;;;;;;1.6;1.45;;;;;;;9.35;72.74316;93912.39;;;;
2022/01/04 04:49:13;;;;;;;1.6;1.45;;;;;;;9.35;72.74316;93912.39;;;;
2022/01/04 04:50:14;;;;;;;1.6;1.45;;;;;;;9.35;72.74316;93912.39;;;;
2022/01/04 04:51:14;;;;;;;1.6;1.45;;;;;;;9.35;72.74316;93912.39;;;;
2022/01/04 04:52:15;;;;;;;1.6;1.45;;;;;;;9.35;72.74316;93912.39;;;;
2022/01/04 04:53:16;;;;;;;1.6;1.45;;;;;;;9.35;72.74316;93912.39;;;;
2022/01/04 04:54:16;;;;;;;1.6;1.45;;;;;;;9.35;72.74316;93912.39;;;;
2022/01/04 04:55:17;;;;;;;1.6;1.45;;;;;;;9.35;72.74316;93912.39;;;;
2022/01/04 04:56:17;;;;;;;1.6;1.45;;;;;;;9.35;72.74316;93912.39;;;;
2022/01/04 04:57:18;;;;;;;1.6;1.45;;;;;;;9.35;72.74316;93912.39;;;;
2022/01/04 04:58:18;;;;;;;1.6;1.45;;;;;;;9.35;72.74316;93912.39;;;;
2022/01/04 04:59:19;;;;;;;1.6;1.45;;;;;;;9.35;72.74316;93912.39;;;;
2022/01/04 05:00:20;;;;;;;1.6;1.45;;;;;;;9.35;72.74316;93912.39;;;;
2022/01/04 05:01:20;;;;;;;1.6;1.45;;;;;;;9.35;72.74316;93912.39;;;;
2022/01/04 05:02:21;;;;;;;1.6;1.45;;;;;;;9.35;72.74316;93912.39;;;;
2022/01/04 05:03:21;;;;;;;1.6;1.45;;;;;;;9.35;72.74316;93912.39;;;;
2022/01/04 05:04:22;;;;;;;1.6;1.45;;;;;;;9.35;72.74316;93912.39;;;;
2022/01/04 05:05:23;;;;;;;1.6;1.45;;;;;;;9.35;72.74316;93912.39;;;;
2022/01/04 05:06:24;;;;;;;2.3;1.6;;;;;;;8.59;74.08789;93891.83;;;;
2022/01/04 05:07:26;;;;;;;2.3;1.6;;;;;;;8.59;74.08789;93891.83;;;;
2022/01/04 05:08:26;;;;;;;2.3;1.6;;;;;;;8.59;74.08789;93891.83;;;;
2022/01/04 05:09:27;;;;;;;2.3;1.6;;;;;;;8.59;74.08789;93891.83;;;;
2022/01/04 05:10:27;;;;;;;2.3;1.6;;;;;;;8.59;74.08789;93891.83;;;;
2022/01/04 05:11:28;;;;;;;2.3;1.6;;;;;;;8.59;74.08789;93891.83;;;;
2022/01/04 05:12:29;;;;;;;2.3;1.6;;;;;;;8.59;74.08789;93891.83;;;;
2022/01/04 05:13:29;;;;;;;2.3;1.6;;;;;;;8.59;74.08789;93891.83;;;;
2022/01/04 05:14:30;;;;;;;2.3;1.6;;;;;;;8.59;74.08789;93891.83;;;;
2022/01/04 05:15:30;;;;;;;2.3;1.6;;;;;;;8.59;74.08789;93891.83;;;;
2022/01/04 05:16:31;;;;;;;2.3;1.6;;;;;;;8.59;74.08789;93891.83;;;;
2022/01/04 05:17:31;;;;;;;2.6;1.6;;;;;;;8.38;74.55273;93879.69;;;;
2022/01/04 05:18:32;;;;;;;2.6;1.6;;;;;;;8.38;74.55273;93879.69;;;;
2022/01/04 05:19:32;;;;;;;2.6;1.6;;;;;;;8.38;74.55273;93879.69;;;;
2022/01/04 05:20:34;;;;;;;2.6;1.6;;;;;;;8.38;74.55273;93879.69;;;;
2022/01/04 05:21:34;;;;;;;2.6;1.6;;;;;;;8.38;74.55273;93879.69;;;;
2022/01/04 05:22:35;;;;;;;2.6;1.6;;;;;;;8.38;74.55273;93879.69;;;;
2022/01/04 05:23:35;;;;;;;2.6;1.6;;;;;;;8.38;74.55273;93879.69;;;;
2022/01/04 05:24:36;;;;;;;2.6;1.6;;;;;;;8.38;74.55273;93879.69;;;;
2022/01/04 05:25:36;;;;;;;2.6;1.6;;;;;;;8.38;74.55273;93879.69;;;;
2022/01/04 05:26:37;;;;;;;2.6;1.6;;;;;;;8.38;74.55273;93879.69;;;;
2022/01/04 05:27:38;;;;;;;1.85;1.5;;;;;;;8.15;74.98047;93860.77;;;;
2022/01/04 05:28:42;;;;;;;1.85;1.5;;;;;;;8.15;74.98047;93860.77;;;;
2022/01/04 05:29:42;;;;;;;1.85;1.5;;;;;;;8.15;74.98047;93860.77;;;;
2022/01/04 05:30:42;;;;;;;1.85;1.5;;;;;;;8.15;74.98047;93860.77;;;;
2022/01/04 05:31:43;;;;;;;1.85;1.5;;;;;;;8.15;74.98047;93860.77;;;;
2022/01/04 05:32:44;;;;;;;1.85;1.5;;;;;;;8.15;74.98047;93860.77;;;;
2022/01/04 05:33:44;;;;;;;1.85;1.5;;;;;;;8.15;74.98047;93860.77;;;;
2022/01/04 05:34:44;;;;;;;1.85;1.5;;;;;;;8.15;74.98047;93860.77;;;;
2022/01/04 05:35:47;;;;;;;1.85;1.5;;;;;;;8.15;74.98047;93860.77;;;;
2022/01/04 05:36:47;;;;;;;1.85;1.5;;;;;;;8.15;74.98047;93860.77;;;;
2022/01/04 05:37:48;;;;;;;1.85;1.5;;;;;;;8.15;74.98047;93860.77;;;;
2022/01/04 05:38:48;;;;;;;2.3;1.6;;;;;;;7.94;75.56152;93856.69;;;;
2022/01/04 05:39:49;;;;;;;2.3;1.6;;;;;;;7.94;75.56152;93856.69;;;;
2022/01/04 05:40:49;;;;;;;2.3;1.6;;;;;;;7.94;75.56152;93856.69;;;;
2022/01/04 05:41:50;;;;;;;2.3;1.6;;;;;;;7.94;75.56152;93856.69;;;;
2022/01/04 05:42:50;;;;;;;2.3;1.6;;;;;;;7.94;75.56152;93856.69;;;;
2022/01/04 05:43:51;;;;;;;2.3;1.6;;;;;;;7.94;75.56152;93856.69;;;;
2022/01/04 05:44:51;;;;;;;2.3;1.6;;;;;;;7.94;75.56152;93856.69;;;;
2022/01/04 05:45:52;;;;;;;2.3;1.6;;;;;;;7.94;75.56152;93856.69;;;;
2022/01/04 05:46:53;;;;;;;2.3;1.6;;;;;;;7.94;75.56152;93856.69;;;;
2022/01/04 05:47:53;;;;;;;2.3;1.6;;;;;;;7.94;75.56152;93856.69;;;;
2022/01/04 05:48:54;;;;;;;2.1;1.55;;;;;;;7.77;76.05273;93849.66;;;;
2022/01/04 05:49:55;;;;;;;2.1;1.55;;;;;;;7.77;76.05273;93849.66;;;;
2022/01/04 05:50:55;;;;;;;2.1;1.55;;;;;;;7.77;76.05273;93849.66;;;;
2022/01/04 05:51:56;;;;;;;2.1;1.55;;;;;;;7.77;76.05273;93849.66;;;;
2022/01/04 05:52:56;;;;;;;2.1;1.55;;;;;;;7.77;76.05273;93849.66;;;;
2022/01/04 05:53:57;;;;;;;2.1;1.55;;;;;;;7.77;76.05273;93849.66;;;;
2022/01/04 05:54:57;;;;;;;2.1;1.55;;;;;;;7.77;76.05273;93849.66;;;;
2022/01/04 05:55:58;;;;;;;2.1;1.55;;;;;;;7.77;76.05273;93849.66;;;;
2022/01/04 05:56:58;;;;;;;2.1;1.55;;;;;;;7.77;76.05273;93849.66;;;;
2022/01/04 05:57:59;;;;;;;2.1;1.55;;;;;;;7.77;76.05273;93849.66;;;;
2022/01/04 05:59:00;;;;;;;2.1;1.55;;;;;;;7.77;76.05273;93849.66;;;;
2022/01/04 06:00:00;;;;;;;2.75;1.55;;;;;;;7.61;76.86328;93843.85;;;;
2022/01/04 06:01:03;;;;;;;2.75;1.55;;;;;;;7.61;76.86328;93843.85;;;;